Terminal Aerodrome Forecast
Issued by NWS Blacksburg, VA

Current Version | Previous Version | Graphics & Text | Print | Product List | Glossary On
Versions: 1 2 3 4 5 6 7 8 9 10 11 12 13 14 15 16
000
FTUS41 KRNK 140937 AAA
TAFBLF
TAF AMD
KBLF 140937Z 1410/1506 27017G32KT P6SM -SHSN OVC035
      TEMPO 1410/1413 3SM -SHSN OVC007
     FM141400 29014G28KT P6SM -SHSN BKN015
     FM141900 29008KT P6SM BKN035=

USA.gov is the U.S. government's official web portal to all federal, state and local government web resources and services.